Time;durP1;ratioP1;P1;durP2;ratioP2;P2;SDS_P1;SDS_P2;PMS_P1;PMS_P2;Temp;Humidity;BMP_temperature;BMP_pressure;BME280_temperature;BME280_humidity;BME280_pressure;Samples;Min_cycle;Max_cycle;Signal;HPM_P1;HPM_P2
2021/12/02 00:02:16;;;;;;;2.80;1.00;;;7.00;99.90;;;;;;5053664;28;20112;-73
2021/12/02 00:04:43;;;;;;;1.88;0.60;;;7.00;99.90;;;;;;5053613;28;20025;-73
2021/12/02 00:07:09;;;;;;;2.92;1.13;;;6.90;99.90;;;;;;5053657;28;20031;-73
2021/12/02 00:09:36;;;;;;;1.55;0.60;;;6.90;99.90;;;;;;5054147;28;20469;-74
2021/12/02 00:12:03;;;;;;;3.30;1.00;;;6.80;99.90;;;;;;5057211;28;20124;-74
2021/12/02 00:14:36;;;;;;;1.02;0.50;;;6.70;99.90;;;;;;5067563;28;20099;-72
2021/12/02 00:17:10;;;;;;;0.68;0.50;;;6.70;99.90;;;;;;5074580;28;20113;-74
2021/12/02 00:22:25;;;;;;;0.90;0.50;;;6.60;99.90;;;;;;5057697;28;20081;-74
2021/12/02 00:24:55;;;;;;;4.32;0.88;;;6.50;99.90;;;;;;5057699;28;20507;-74
2021/12/02 00:27:24;;;;;;;0.85;0.45;;;6.60;99.90;;;;;;5056287;28;20135;-73
2021/12/02 00:29:52;;;;;;;0.88;0.50;;;6.50;99.90;;;;;;5053553;28;20028;-74
2021/12/02 00:32:18;;;;;;;1.15;0.80;;;6.50;99.90;;;;;;5035854;28;20036;-73
2021/12/02 00:34:46;;;;;;;1.05;0.60;;;6.40;99.90;;;;;;5052788;28;20021;-74
2021/12/02 00:37:12;;;;;;;0.98;0.50;;;6.40;99.90;;;;;;5052921;28;20017;-74
2021/12/02 00:39:38;;;;;;;1.00;0.50;;;6.40;99.90;;;;;;5053155;28;20027;-73
2021/12/02 00:42:04;;;;;;;2.33;0.40;;;6.30;99.90;;;;;;5053287;28;20025;-75
2021/12/02 00:44:32;;;;;;;1.88;0.70;;;6.40;99.90;;;;;;5047397;28;20025;-72
2021/12/02 00:47:01;;;;;;;1.45;0.60;;;6.40;99.90;;;;;;5073281;28;20067;-72
2021/12/02 00:49:27;;;;;;;2.08;0.50;;;6.40;99.90;;;;;;5072984;28;20036;-73
2021/12/02 00:51:58;;;;;;;2.42;0.80;;;6.40;99.90;;;;;;5071919;28;20107;-73
2021/12/02 00:54:24;;;;;;;;;;;6.30;99.90;;;;;;5057601;28;20025;-73
2021/12/02 00:56:50;;;;;;;0.68;0.68;;;6.30;99.90;;;;;;5054822;28;19916;-74
2021/12/02 00:59:17;;;;;;;0.43;0.30;;;6.30;99.90;;;;;;5036255;28;20032;-74
2021/12/02 01:01:44;;;;;;;0.57;0.40;;;6.20;99.90;;;;;;5036289;28;20104;-72
2021/12/02 01:04:12;;;;;;;0.60;0.60;;;6.20;99.90;;;;;;5035109;28;20025;-74
2021/12/02 01:06:40;;;;;;;4.10;0.52;;;6.10;99.90;;;;;;5052564;28;20433;-73
2021/12/02 01:09:07;;;;;;;2.17;1.20;;;6.10;99.90;;;;;;5052175;28;20025;-73
2021/12/02 01:11:33;;;;;;;2.10;0.70;;;6.10;99.90;;;;;;5034346;28;20035;-73
2021/12/02 01:14:00;;;;;;;1.00;0.60;;;6.10;99.90;;;;;;5052490;28;20024;-73
2021/12/02 01:16:25;;;;;;;2.20;0.52;;;6.10;99.90;;;;;;5051665;28;20576;-73
2021/12/02 01:18:51;;;;;;;0.60;0.60;;;6.10;99.90;;;;;;5051561;28;20061;-74
2021/12/02 01:21:21;;;;;;;1.95;0.43;;;6.10;99.90;;;;;;5052401;28;20017;-74
2021/12/02 01:23:50;;;;;;;0.57;0.40;;;6.10;99.90;;;;;;5034122;28;20024;-74
2021/12/02 01:26:17;;;;;;;0.85;0.43;;;6.10;99.90;;;;;;5053006;28;20025;-74
2021/12/02 01:28:45;;;;;;;2.40;0.60;;;6.10;99.90;;;;;;5055507;28;20025;-74
2021/12/02 01:31:12;;;;;;;1.30;0.73;;;6.10;99.90;;;;;;5055112;28;20022;-74
2021/12/02 01:33:39;;;;;;;0.60;0.40;;;6.20;99.90;;;;;;5055313;28;20079;-73
2021/12/02 01:36:07;;;;;;;1.13;0.60;;;6.20;99.90;;;;;;5055985;28;20035;-73
2021/12/02 01:38:33;;;;;;;3.28;0.60;;;6.20;99.90;;;;;;5055503;28;20483;-73
2021/12/02 01:41:01;;;;;;;1.00;0.52;;;6.20;99.90;;;;;;5055789;28;20431;-73
2021/12/02 01:43:47;;;;;;;1.02;0.55;;;6.30;99.90;;;;;;5055272;28;20384;-74
2021/12/02 01:46:23;;;;;;;1.85;0.60;;;6.30;99.90;;;;;;5056508;28;20025;-73
2021/12/02 01:48:58;;;;;;;5.57;0.47;;;6.20;99.90;;;;;;5057566;28;20043;-74
2021/12/02 01:51:26;;;;;;;0.90;0.50;;;6.20;99.90;;;;;;5037296;28;20029;-74
2021/12/02 01:54:07;;;;;;;3.83;0.57;;;6.20;99.90;;;;;;5055010;28;20467;-74
2021/12/02 01:56:44;;;;;;;0.93;0.50;;;6.20;99.90;;;;;;5055718;28;20049;-74
2021/12/02 01:59:15;;;;;;;2.60;0.70;;;6.40;99.90;;;;;;5037678;28;20492;-74
2021/12/02 02:01:43;;;;;;;2.75;0.90;;;6.30;99.90;;;;;;5037698;28;20384;-73
2021/12/02 02:04:09;;;;;;;4.15;0.65;;;6.30;99.90;;;;;;5054604;28;20032;-74
2021/12/02 02:06:54;;;;;;;1.20;0.43;;;6.30;99.90;;;;;;5054516;28;20183;-74
2021/12/02 02:09:19;;;;;;;0.70;0.40;;;6.30;99.90;;;;;;5054549;28;20401;-75
2021/12/02 02:11:45;;;;;;;1.95;0.40;;;6.20;99.90;;;;;;5054411;28;20257;-75
2021/12/02 02:14:11;;;;;;;0.93;0.50;;;6.10;99.90;;;;;;5056079;28;20028;-74
2021/12/02 02:16:38;;;;;;;2.13;0.60;;;6.10;99.90;;;;;;5037580;28;20021;-72
2021/12/02 02:19:06;;;;;;;1.83;0.60;;;6.00;99.90;;;;;;5054596;28;20013;-74
2021/12/02 02:21:35;;;;;;;2.03;0.47;;;6.00;99.90;;;;;;5054596;28;20025;-74
2021/12/02 02:24:02;;;;;;;2.88;0.50;;;5.90;99.90;;;;;;5036352;28;20021;-74
2021/12/02 02:26:34;;;;;;;1.42;0.75;;;6.00;99.90;;;;;;5054561;28;20131;-72
2021/12/02 02:29:01;;;;;;;0.80;0.57;;;5.90;99.90;;;;;;5054491;28;20418;-74
2021/12/02 02:31:31;;;;;;;0.60;0.50;;;5.80;99.90;;;;;;5054334;28;20059;-73
2021/12/02 02:33:57;;;;;;;1.33;0.50;;;5.80;99.90;;;;;;5054252;28;20121;-73
2021/12/02 02:36:29;;;;;;;1.23;0.60;;;5.80;99.90;;;;;;5054407;28;20021;-72
2021/12/02 02:38:56;;;;;;;1.45;0.50;;;5.80;99.90;;;;;;5034939;28;20025;-74
2021/12/02 02:41:25;;;;;;;1.13;0.50;;;5.80;99.90;;;;;;5054392;28;20051;-74
2021/12/02 02:43:56;;;;;;;1.25;0.40;;;5.70;99.90;;;;;;5054602;28;20055;-73
2021/12/02 02:46:25;;;;;;;0.75;0.50;;;5.70;99.90;;;;;;5035803;28;20017;-73
2021/12/02 02:48:51;;;;;;;2.00;0.60;;;5.70;99.90;;;;;;5053844;28;20025;-74
2021/12/02 02:51:17;;;;;;;0.95;0.50;;;5.70;99.90;;;;;;5054071;28;20071;-72
2021/12/02 02:53:42;;;;;;;0.98;0.65;;;5.60;99.90;;;;;;5054102;28;20021;-73
2021/12/02 02:56:17;;;;;;;1.70;0.40;;;5.60;99.90;;;;;;5054104;28;20104;-73
2021/12/02 02:58:54;;;;;;;1.70;0.40;;;5.50;99.90;;;;;;5036038;28;20025;-73
2021/12/02 03:04:06;;;;;;;0.50;0.40;;;5.40;99.90;;;;;;5054814;28;20061;-73
2021/12/02 03:06:43;;;;;;;2.53;1.27;;;5.30;99.90;;;;;;5054637;28;20028;-73
2021/12/02 03:09:20;;;;;;;1.23;0.40;;;5.30;99.90;;;;;;5055138;28;20482;-72
2021/12/02 03:11:53;;;;;;;0.85;0.40;;;5.30;99.90;;;;;;5036352;28;20029;-73
2021/12/02 03:17:09;;;;;;;0.50;0.37;;;5.30;99.90;;;;;;5033558;28;20455;-73
2021/12/02 03:19:40;;;;;;;0.65;0.50;;;5.20;99.90;;;;;;5053099;28;20485;-73
2021/12/02 03:22:06;;;;;;;0.95;0.40;;;5.10;99.90;;;;;;5053247;28;20112;-73
2021/12/02 03:24:31;;;;;;;2.28;0.47;;;5.10;99.90;;;;;;5053254;28;20068;-73
2021/12/02 03:26:57;;;;;;;1.70;0.40;;;5.10;99.90;;;;;;5053183;28;20037;-73
2021/12/02 03:29:23;;;;;;;1.40;1.20;;;5.10;99.90;;;;;;5053837;28;20025;-73
2021/12/02 03:31:48;;;;;;;1.20;0.50;;;5.10;99.90;;;;;;5053513;28;20033;-73
2021/12/02 03:34:14;;;;;;;1.77;0.50;;;5.10;99.90;;;;;;5053557;28;20028;-73
2021/12/02 03:36:41;;;;;;;0.55;0.40;;;5.10;99.90;;;;;;5035257;28;20032;-73
2021/12/02 03:39:09;;;;;;;0.80;0.40;;;5.10;99.90;;;;;;5053730;28;20464;-74
2021/12/02 03:41:36;;;;;;;1.52;0.40;;;5.10;99.90;;;;;;5053540;28;20025;-72
2021/12/02 03:44:02;;;;;;;0.32;0.32;;;5.20;99.90;;;;;;5035270;28;20131;-74
2021/12/02 03:46:28;;;;;;;2.95;0.40;;;5.20;99.90;;;;;;5052424;28;20492;-73
2021/12/02 03:48:55;;;;;;;0.32;0.32;;;5.20;99.90;;;;;;5052187;28;20180;-72
2021/12/02 03:51:22;;;;;;;1.10;0.45;;;5.30;99.90;;;;;;5035406;28;20021;-73
2021/12/02 03:53:47;;;;;;;0.90;0.50;;;5.20;99.90;;;;;;5036387;28;20024;-72
2021/12/02 03:56:14;;;;;;;2.13;0.68;;;5.20;99.90;;;;;;5052618;28;20029;-73
2021/12/02 03:58:41;;;;;;;0.80;0.43;;;5.10;99.90;;;;;;5052765;28;20075;-73
2021/12/02 04:01:08;;;;;;;1.48;0.70;;;5.00;99.90;;;;;;5054835;28;20055;-73
2021/12/02 04:03:34;;;;;;;0.85;0.50;;;5.00;99.90;;;;;;5059340;28;20041;-72
2021/12/02 04:06:00;;;;;;;0.47;0.47;;;5.00;99.90;;;;;;5077298;28;20036;-72
2021/12/02 04:14:04;;;;;;;1.77;0.50;;;5.00;99.90;;;;;;5068698;28;20458;-73
2021/12/02 04:16:34;;;;;;;0.40;0.40;;;5.00;99.90;;;;;;5069902;28;20040;-72
2021/12/02 04:19:00;;;;;;;2.20;0.50;;;5.00;99.90;;;;;;5065292;28;20043;-73
2021/12/02 04:21:25;;;;;;;1.70;0.80;;;5.10;99.90;;;;;;5060114;28;20044;-73
2021/12/02 04:23:51;;;;;;;1.52;0.70;;;5.10;99.90;;;;;;5060816;28;20013;-73
2021/12/02 04:26:16;;;;;;;0.57;0.40;;;5.10;99.90;;;;;;5078828;22;20028;-72
2021/12/02 04:28:42;;;;;;;1.48;1.00;;;5.20;99.90;;;;;;5037348;28;20059;-72
2021/12/02 04:31:08;;;;;;;1.20;0.50;;;5.30;99.90;;;;;;5052740;28;20047;-74
2021/12/02 04:33:33;;;;;;;2.05;1.10;;;5.30;99.90;;;;;;5052340;28;20029;-74
2021/12/02 04:36:00;;;;;;;0.68;0.40;;;5.30;99.90;;;;;;5052272;28;20036;-74
2021/12/02 04:38:27;;;;;;;1.95;0.85;;;5.30;99.90;;;;;;5034760;28;20603;-73
2021/12/02 04:40:53;;;;;;;0.75;0.60;;;5.30;99.90;;;;;;5052418;28;20487;-74
2021/12/02 04:43:19;;;;;;;0.30;0.30;;;5.30;99.90;;;;;;5056596;28;20024;-74
2021/12/02 04:45:45;;;;;;;1.98;0.70;;;5.40;99.90;;;;;;5057646;28;20029;-74
2021/12/02 04:48:10;;;;;;;1.85;0.43;;;5.40;99.90;;;;;;5053439;28;20025;-74
2021/12/02 04:50:36;;;;;;;1.10;0.55;;;5.30;99.90;;;;;;5052426;28;20036;-74
2021/12/02 04:53:02;;;;;;;1.05;0.90;;;5.30;99.90;;;;;;5036155;28;20058;-74
2021/12/02 04:55:28;;;;;;;1.10;0.60;;;5.30;99.90;;;;;;5054031;28;20052;-74
2021/12/02 04:57:54;;;;;;;0.68;0.40;;;5.30;99.90;;;;;;5052243;28;20087;-73
2021/12/02 05:00:20;;;;;;;1.35;0.90;;;5.30;99.90;;;;;;5033833;28;20029;-73
2021/12/02 05:02:45;;;;;;;2.30;0.50;;;5.30;99.90;;;;;;5055468;28;20104;-73
2021/12/02 05:05:11;;;;;;;1.90;1.08;;;5.30;99.90;;;;;;5056450;28;20384;-73
2021/12/02 05:07:37;;;;;;;2.63;0.93;;;5.50;99.90;;;;;;5055985;28;20025;-72
2021/12/02 05:10:04;;;;;;;0.50;0.50;;;5.40;99.90;;;;;;5037642;28;20025;-73
2021/12/02 05:12:30;;;;;;;1.27;0.45;;;5.40;99.90;;;;;;5055867;28;20025;-73
2021/12/02 05:14:56;;;;;;;0.95;0.60;;;5.40;99.90;;;;;;5055461;28;20150;-72
2021/12/02 05:17:22;;;;;;;0.85;0.55;;;5.40;99.90;;;;;;5037534;28;20075;-73
2021/12/02 05:19:47;;;;;;;1.52;0.50;;;5.40;99.90;;;;;;5056773;28;20033;-73
2021/12/02 05:22:14;;;;;;;3.40;0.57;;;5.40;99.90;;;;;;5055545;28;20028;-73
2021/12/02 05:24:40;;;;;;;2.75;1.15;;;5.40;99.90;;;;;;5055286;28;20028;-73
2021/12/02 05:27:06;;;;;;;1.02;0.50;;;5.30;99.90;;;;;;5054924;28;20037;-72
2021/12/02 05:29:31;;;;;;;4.97;0.90;;;5.30;99.90;;;;;;5055470;28;20051;-74
2021/12/02 05:31:58;;;;;;;3.15;0.60;;;5.20;99.90;;;;;;5055626;28;20473;-73
2021/12/02 05:34:23;;;;;;;0.50;0.50;;;5.30;99.90;;;;;;5055236;28;20044;-73
2021/12/02 05:36:49;;;;;;;1.60;0.40;;;5.40;99.90;;;;;;5054825;28;20384;-73
2021/12/02 05:39:14;;;;;;;1.13;0.55;;;5.40;99.90;;;;;;5054507;28;20040;-73
2021/12/02 05:41:40;;;;;;;1.38;0.68;;;5.30;99.90;;;;;;5055113;28;20393;-73
2021/12/02 05:44:06;;;;;;;0.70;0.45;;;5.20;99.90;;;;;;5054650;28;20021;-74
2021/12/02 05:46:32;;;;;;;2.05;0.60;;;5.10;99.90;;;;;;5054971;28;20610;-73
2021/12/02 05:48:57;;;;;;;0.82;0.60;;;5.00;99.90;;;;;;5057823;28;20034;-75
2021/12/02 05:51:23;;;;;;;0.90;0.50;;;5.00;99.90;;;;;;5057302;28;20083;-74
2021/12/02 05:53:48;;;;;;;1.38;0.57;;;5.00;99.90;;;;;;5037019;28;20046;-73
2021/12/02 05:56:14;;;;;;;0.82;0.32;;;5.00;99.90;;;;;;5036659;28;20171;-73
2021/12/02 05:58:40;;;;;;;1.50;0.60;;;5.00;99.90;;;;;;5054540;28;20393;-75
2021/12/02 06:01:05;;;;;;;3.20;1.15;;;5.00;99.90;;;;;;5042986;28;20111;-74
2021/12/02 06:03:34;;;;;;;2.55;0.60;;;5.10;99.90;;;;;;5042765;28;20541;-74
2021/12/02 06:06:00;;;;;;;2.28;0.50;;;5.10;99.90;;;;;;5037351;28;20354;-74
2021/12/02 06:08:25;;;;;;;1.33;0.60;;;5.20;99.90;;;;;;5055532;28;20039;-73
2021/12/02 06:10:51;;;;;;;0.85;0.60;;;5.20;99.90;;;;;;5037193;28;20056;-73
2021/12/02 06:13:16;;;;;;;1.77;0.70;;;5.20;99.90;;;;;;5036660;28;20079;-75
2021/12/02 06:15:42;;;;;;;1.63;0.90;;;5.20;99.90;;;;;;5054864;28;20040;-74
2021/12/02 06:18:08;;;;;;;0.90;0.90;;;5.20;99.90;;;;;;5054929;28;20033;-73
2021/12/02 06:20:34;;;;;;;2.53;0.65;;;5.20;99.90;;;;;;5037634;28;20021;-74
2021/12/02 06:23:00;;;;;;;0.77;0.60;;;5.20;99.90;;;;;;5055007;28;20427;-74
2021/12/02 06:27:53;;;;;;;1.55;0.88;;;5.20;99.90;;;;;;5056191;28;20098;-73
2021/12/02 06:30:22;;;;;;;2.25;0.60;;;5.20;99.90;;;;;;5071008;28;20029;-74
2021/12/02 06:32:47;;;;;;;3.33;1.40;;;5.10;99.90;;;;;;5064015;28;20036;-72
2021/12/02 06:35:14;;;;;;;1.45;0.50;;;5.20;99.90;;;;;;5053672;28;20033;-72
2021/12/02 06:37:40;;;;;;;1.92;0.50;;;5.20;99.90;;;;;;5054409;28;20032;-72
2021/12/02 06:40:07;;;;;;;0.77;0.77;;;5.10;99.90;;;;;;5056470;28;20407;-72
2021/12/02 06:42:33;;;;;;;0.57;0.52;;;5.10;99.90;;;;;;5054236;28;20055;-73
2021/12/02 06:44:59;;;;;;;1.67;0.50;;;5.00;99.90;;;;;;5053548;28;20469;-73
2021/12/02 06:47:35;;;;;;;1.00;0.90;;;5.00;99.90;;;;;;5053684;28;20021;-73
2021/12/02 06:50:03;;;;;;;3.00;0.80;;;4.90;99.90;;;;;;5037166;28;20244;-73
2021/12/02 06:52:29;;;;;;;0.73;0.50;;;4.80;99.90;;;;;;5053879;28;20021;-74
2021/12/02 06:54:55;;;;;;;2.00;0.60;;;4.70;99.90;;;;;;5053612;28;20395;-73
2021/12/02 06:57:22;;;;;;;0.55;0.55;;;4.70;99.90;;;;;;5053690;28;20056;-74
2021/12/02 06:59:47;;;;;;;1.85;0.50;;;4.70;99.90;;;;;;5054370;28;20031;-74
2021/12/02 07:02:13;;;;;;;0.60;0.60;;;4.60;99.90;;;;;;5065012;28;20443;-74
2021/12/02 07:04:39;;;;;;;0.82;0.57;;;4.70;99.90;;;;;;5055091;28;20366;-74
2021/12/02 07:07:04;;;;;;;2.95;0.50;;;4.70;99.90;;;;;;5054712;28;20029;-74
2021/12/02 07:09:30;;;;;;;0.57;0.57;;;4.70;99.90;;;;;;5054444;28;20032;-73
2021/12/02 07:11:56;;;;;;;0.57;0.50;;;4.70;99.90;;;;;;5054369;28;20051;-73
2021/12/02 07:14:23;;;;;;;0.43;0.43;;;4.60;99.90;;;;;;5053877;28;20370;-73
2021/12/02 07:16:49;;;;;;;1.20;1.20;;;4.60;99.90;;;;;;5035915;28;20021;-72
2021/12/02 07:19:15;;;;;;;0.55;0.55;;;4.60;99.90;;;;;;5053666;28;20024;-74
2021/12/02 07:21:41;;;;;;;0.82;0.50;;;4.60;99.90;;;;;;5053944;28;20032;-72
2021/12/02 07:24:13;;;;;;;4.75;0.90;;;4.60;99.90;;;;;;5035171;28;20032;-74
2021/12/02 07:26:40;;;;;;;0.77;0.63;;;4.60;99.90;;;;;;5055442;28;20158;-74
2021/12/02 07:29:11;;;;;;;1.30;1.02;;;4.60;99.90;;;;;;5054985;28;20017;-74
2021/12/02 07:31:38;;;;;;;0.70;0.70;;;4.70;99.90;;;;;;5037177;28;20328;-74
2021/12/02 07:34:04;;;;;;;0.60;0.60;;;4.60;99.90;;;;;;5053622;28;20114;-73
2021/12/02 07:36:31;;;;;;;1.10;0.55;;;4.70;99.90;;;;;;5054455;28;20468;-72
2021/12/02 07:39:00;;;;;;;4.13;1.77;;;4.80;99.90;;;;;;5054054;28;20059;-73
2021/12/02 07:41:26;;;;;;;1.30;0.95;;;4.90;99.90;;;;;;5054936;28;20051;-73
2021/12/02 07:43:51;;;;;;;1.00;0.70;;;4.90;99.90;;;;;;5053859;28;20024;-74
2021/12/02 07:46:17;;;;;;;3.55;1.52;;;5.00;99.90;;;;;;5055912;28;20112;-74
2021/12/02 07:48:43;;;;;;;3.80;1.10;;;5.00;99.90;;;;;;5054813;28;20108;-73
2021/12/02 07:51:12;;;;;;;3.15;1.98;;;4.90;99.90;;;;;;5056223;28;20029;-73
2021/12/02 07:53:42;;;;;;;3.40;1.48;;;4.90;99.90;;;;;;5054014;28;20029;-72
2021/12/02 07:56:10;;;;;;;2.10;1.70;;;5.00;99.90;;;;;;5034910;28;20580;-72
2021/12/02 07:58:40;;;;;;;3.08;1.35;;;5.00;99.90;;;;;;5053228;28;20028;-73
2021/12/02 08:01:08;;;;;;;3.67;1.17;;;5.00;99.90;;;;;;5053729;28;20021;-75
2021/12/02 08:03:33;;;;;;;1.88;1.20;;;5.00;99.90;;;;;;5053095;28;20017;-74
2021/12/02 08:05:59;;;;;;;1.83;0.80;;;5.10;99.90;;;;;;5035182;28;20127;-72
2021/12/02 08:08:25;;;;;;;1.25;0.90;;;5.20;99.90;;;;;;5053410;28;20083;-73
2021/12/02 08:10:50;;;;;;;0.60;0.60;;;5.20;99.90;;;;;;5052556;28;20025;-74
2021/12/02 08:13:16;;;;;;;1.40;1.20;;;5.20;99.90;;;;;;5053142;28;20036;-74
2021/12/02 08:15:42;;;;;;;4.13;0.80;;;5.20;99.90;;;;;;5057031;28;20028;-72
2021/12/02 08:18:09;;;;;;;2.95;0.80;;;5.20;99.90;;;;;;5058868;28;20021;-73
2021/12/02 08:20:36;;;;;;;2.22;1.05;;;5.20;99.90;;;;;;5063980;28;20042;-74
2021/12/02 08:23:03;;;;;;;1.33;1.08;;;5.20;99.90;;;;;;5041041;28;20079;-73
2021/12/02 08:25:30;;;;;;;2.63;1.30;;;5.30;99.90;;;;;;5052535;28;20104;-73
2021/12/02 08:27:59;;;;;;;4.25;1.00;;;5.40;99.90;;;;;;5052390;28;20039;-73
2021/12/02 08:30:26;;;;;;;1.67;1.15;;;5.40;99.90;;;;;;5035718;28;20055;-73
2021/12/02 08:32:53;;;;;;;1.52;1.25;;;5.50;99.90;;;;;;5034836;28;20393;-73
2021/12/02 08:35:19;;;;;;;3.83;1.17;;;5.50;99.90;;;;;;5054152;28;20496;-72
2021/12/02 08:37:47;;;;;;;2.22;1.20;;;5.60;99.90;;;;;;5057754;28;20021;-73
2021/12/02 08:40:19;;;;;;;5.85;1.38;;;5.50;99.90;;;;;;5059898;28;20017;-74
2021/12/02 08:42:45;;;;;;;1.23;0.90;;;5.50;99.90;;;;;;5039118;28;20025;-73
2021/12/02 08:45:11;;;;;;;2.72;1.40;;;5.50;99.90;;;;;;5057345;28;20482;-74
2021/12/02 08:47:43;;;;;;;2.00;1.17;;;5.60;99.90;;;;;;5056373;28;20087;-73
2021/12/02 08:50:13;;;;;;;0.85;0.80;;;5.60;99.90;;;;;;5056411;28;20025;-73
2021/12/02 08:52:39;;;;;;;2.50;1.10;;;5.70;99.90;;;;;;5038747;28;20112;-73
2021/12/02 08:55:05;;;;;;;1.27;0.98;;;5.60;99.90;;;;;;5056705;28;20132;-73
2021/12/02 08:57:31;;;;;;;1.70;1.05;;;5.70;99.90;;;;;;5056488;28;20072;-73
2021/12/02 08:59:56;;;;;;;4.00;1.70;;;5.70;99.90;;;;;;5064803;28;20017;-73
2021/12/02 09:02:22;;;;;;;1.13;1.02;;;5.70;99.90;;;;;;5049939;28;20143;-73
2021/12/02 09:04:47;;;;;;;3.05;1.30;;;5.90;99.90;;;;;;5069060;28;20079;-73
2021/12/02 09:07:14;;;;;;;2.33;0.93;;;5.90;99.90;;;;;;5068361;28;20480;-73
2021/12/02 09:09:40;;;;;;;1.10;1.02;;;6.00;99.90;;;;;;5061778;28;20024;-73
2021/12/02 09:12:08;;;;;;;1.92;0.93;;;6.00;99.90;;;;;;5064946;28;20079;-73
2021/12/02 09:14:34;;;;;;;1.88;1.35;;;6.10;99.90;;;;;;5066125;28;20052;-73
2021/12/02 09:17:00;;;;;;;1.08;0.90;;;6.10;99.90;;;;;;5067564;28;20021;-73
2021/12/02 09:19:26;;;;;;;2.90;1.00;;;6.30;99.90;;;;;;5054298;28;20097;-73
2021/12/02 09:21:52;;;;;;;4.13;1.10;;;6.40;99.90;;;;;;5075243;28;20139;-73
2021/12/02 09:24:20;;;;;;;5.53;1.20;;;6.40;99.90;;;;;;5073582;28;20028;-74
2021/12/02 09:26:48;;;;;;;1.88;1.10;;;6.60;99.90;;;;;;5063041;28;20071;-73
2021/12/02 09:29:15;;;;;;;2.42;1.17;;;6.50;99.90;;;;;;5062966;28;20021;-73
2021/12/02 09:31:40;;;;;;;2.65;1.35;;;6.50;99.90;;;;;;5063016;28;20048;-73
2021/12/02 09:34:06;;;;;;;3.58;1.27;;;6.70;99.90;;;;;;5066304;28;20025;-74
2021/12/02 09:36:32;;;;;;;2.78;1.05;;;6.80;99.90;;;;;;5063113;28;20037;-73
2021/12/02 09:38:58;;;;;;;2.10;1.10;;;6.90;99.90;;;;;;5062011;28;20025;-73
2021/12/02 09:41:24;;;;;;;1.70;1.10;;;6.80;99.90;;;;;;5057265;28;20031;-74
2021/12/02 09:43:49;;;;;;;1.20;0.82;;;6.70;99.90;;;;;;5057168;28;20388;-73
2021/12/02 09:46:15;;;;;;;1.33;1.17;;;6.60;99.90;;;;;;5055882;28;20369;-75
2021/12/02 09:48:41;;;;;;;2.40;1.00;;;6.60;99.90;;;;;;5055146;28;20263;-74
2021/12/02 09:51:10;;;;;;;4.50;1.48;;;6.50;99.90;;;;;;5056006;28;20025;-73
2021/12/02 09:53:59;;;;;;;1.60;1.00;;;6.40;99.90;;;;;;5056247;28;20024;-74
2021/12/02 09:56:28;;;;;;;1.38;1.27;;;6.40;99.90;;;;;;5055106;28;20415;-74
2021/12/02 09:59:01;;;;;;;0.82;0.80;;;6.30;99.90;;;;;;5055532;28;20036;-73
2021/12/02 10:01:39;;;;;;;1.55;1.25;;;6.30;99.90;;;;;;5056567;28;20029;-73
2021/12/02 10:04:05;;;;;;;1.85;1.02;;;6.10;99.90;;;;;;5037602;28;20108;-74
2021/12/02 10:06:32;;;;;;;1.77;0.88;;;5.90;99.90;;;;;;5055503;28;20106;-73
2021/12/02 10:09:11;;;;;;;1.00;0.85;;;5.40;99.90;;;;;;5036691;28;20466;-74
2021/12/02 10:11:59;;;;;;;0.85;0.70;;;5.10;99.90;;;;;;5055296;28;20033;-73
2021/12/02 10:14:33;;;;;;;0.73;0.63;;;4.80;99.90;;;;;;5054716;28;20505;-73
2021/12/02 10:17:21;;;;;;;0.52;0.50;;;4.60;99.90;;;;;;5054969;28;20544;-74
2021/12/02 10:20:17;;;;;;;3.50;0.52;;;4.60;99.90;;;;;;5054581;28;20021;-72
2021/12/02 10:23:14;;;;;;;0.68;0.47;;;4.60;99.90;;;;;;5056071;28;20032;-72
2021/12/02 10:25:48;;;;;;;4.00;0.47;;;4.40;99.90;;;;;;5055448;28;20017;-73
2021/12/02 10:28:16;;;;;;;0.50;0.50;;;4.40;99.90;;;;;;5056337;23;20644;-72
2021/12/02 10:30:50;;;;;;;1.17;0.55;;;4.40;99.90;;;;;;5044161;28;20026;-73
2021/12/02 10:33:32;;;;;;;2.15;0.55;;;4.40;99.90;;;;;;5040990;28;20113;-73
2021/12/02 10:35:59;;;;;;;1.25;0.85;;;4.40;99.90;;;;;;5046887;28;20085;-74
2021/12/02 10:38:37;;;;;;;0.63;0.60;;;4.40;99.90;;;;;;5050606;28;20022;-74
2021/12/02 10:41:20;;;;;;;1.80;0.82;;;4.40;99.90;;;;;;5044969;28;20026;-73
2021/12/02 10:44:01;;;;;;;1.40;0.80;;;4.50;99.90;;;;;;5044285;28;20032;-74
2021/12/02 10:46:27;;;;;;;2.47;0.70;;;4.50;99.90;;;;;;5040772;28;20025;-74
2021/12/02 10:48:53;;;;;;;0.40;0.40;;;4.50;99.90;;;;;;5040835;28;20072;-75
2021/12/02 10:51:40;;;;;;;1.08;0.68;;;4.60;99.90;;;;;;5037883;28;20030;-74
2021/12/02 10:54:12;;;;;;;2.55;1.00;;;4.60;99.90;;;;;;5044497;28;20026;-72
2021/12/02 10:56:38;;;;;;;1.27;0.73;;;4.60;99.90;;;;;;5037489;28;20040;-74
2021/12/02 10:59:33;;;;;;;0.70;0.70;;;4.60;99.90;;;;;;5037177;28;20092;-73
2021/12/02 11:02:18;;;;;;;2.35;1.58;;;4.60;99.90;;;;;;5038281;28;20029;-73
2021/12/02 11:04:47;;;;;;;2.17;0.70;;;4.60;99.90;;;;;;5036835;28;20446;-73
2021/12/02 11:07:24;;;;;;;1.00;0.57;;;4.60;99.90;;;;;;5035152;28;20034;-74
2021/12/02 11:09:52;;;;;;;0.70;0.60;;;4.60;99.90;;;;;;5038081;28;20025;-75
2021/12/02 11:12:29;;;;;;;1.85;0.60;;;4.50;99.90;;;;;;5036399;28;20036;-73
2021/12/02 11:14:55;;;;;;;0.73;0.55;;;4.40;99.90;;;;;;5019984;28;20052;-74
2021/12/02 11:17:21;;;;;;;1.95;0.60;;;4.40;99.90;;;;;;5035302;28;20030;-74
2021/12/02 11:19:51;;;;;;;1.40;0.65;;;4.30;99.90;;;;;;5035655;28;20017;-74
2021/12/02 11:22:21;;;;;;;1.75;0.60;;;4.40;99.90;;;;;;5037964;28;20036;-73
2021/12/02 11:24:48;;;;;;;1.33;0.63;;;4.30;99.90;;;;;;5043774;28;20029;-73
2021/12/02 11:27:23;;;;;;;0.85;0.70;;;4.40;99.90;;;;;;5036400;28;20037;-74
2021/12/02 11:29:58;;;;;;;1.02;0.82;;;4.50;99.90;;;;;;5037194;28;20029;-74
2021/12/02 11:32:33;;;;;;;0.95;0.75;;;4.50;99.90;;;;;;5035266;28;20025;-74
2021/12/02 11:35:19;;;;;;;1.15;0.98;;;4.50;99.90;;;;;;5035213;28;20017;-73
2021/12/02 11:37:48;;;;;;;0.80;0.60;;;4.40;99.90;;;;;;5034896;28;20107;-73
2021/12/02 11:40:18;;;;;;;1.55;0.80;;;4.50;99.90;;;;;;5036848;28;20017;-74
2021/12/02 11:42:44;;;;;;;1.10;0.90;;;4.50;99.90;;;;;;5035821;28;20021;-73
2021/12/02 11:45:12;;;;;;;1.15;0.95;;;4.50;99.90;;;;;;5036628;28;20030;-73
2021/12/02 11:47:39;;;;;;;2.17;1.00;;;4.50;99.90;;;;;;5035547;28;20021;-74
2021/12/02 11:50:07;;;;;;;1.23;0.85;;;4.60;99.90;;;;;;5034422;28;20040;-73
2021/12/02 11:52:36;;;;;;;0.95;0.80;;;4.50;99.90;;;;;;5035039;28;20032;-73
2021/12/02 11:55:23;;;;;;;1.25;0.60;;;4.60;99.90;;;;;;5035659;28;20407;-74
2021/12/02 11:57:49;;;;;;;2.03;1.00;;;4.70;99.90;;;;;;5035833;28;20087;-72
2021/12/02 12:00:18;;;;;;;1.00;0.90;;;4.80;99.90;;;;;;5035620;28;20491;-73
2021/12/02 12:03:05;;;;;;;1.73;1.45;;;4.90;99.90;;;;;;5035376;28;20029;-73
2021/12/02 12:05:41;;;;;;;1.10;1.02;;;5.00;99.90;;;;;;5035279;28;20033;-74
2021/12/02 12:08:08;;;;;;;1.63;0.90;;;5.20;99.90;;;;;;5035309;28;20055;-73
2021/12/02 12:10:41;;;;;;;1.10;1.00;;;5.00;99.90;;;;;;5034566;28;20029;-72
2021/12/02 12:13:27;;;;;;;0.85;0.85;;;5.00;99.90;;;;;;5034234;28;20404;-73
2021/12/02 12:16:00;;;;;;;1.17;1.08;;;5.00;99.90;;;;;;5033587;28;20037;-73
2021/12/02 12:18:25;;;;;;;1.02;0.77;;;5.00;99.90;;;;;;5033001;28;20044;-74
2021/12/02 12:21:03;;;;;;;1.00;0.90;;;5.10;99.90;;;;;;5034102;28;20481;-74
2021/12/02 12:23:40;;;;;;;2.60;1.00;;;5.10;99.90;;;;;;5033306;28;20025;-74
2021/12/02 12:26:20;;;;;;;2.13;1.40;;;5.10;99.90;;;;;;5034493;28;20033;-73
2021/12/02 12:29:04;;;;;;;2.72;0.80;;;5.10;99.90;;;;;;5034960;28;20033;-73
2021/12/02 12:31:58;;;;;;;1.13;1.02;;;5.00;99.90;;;;;;5037072;28;20033;-75
2021/12/02 12:34:39;;;;;;;1.27;0.98;;;5.00;99.90;;;;;;5040626;28;20030;-74
2021/12/02 12:37:22;;;;;;;1.27;0.98;;;5.00;99.90;;;;;;5046987;28;20023;-72
2021/12/02 12:40:20;;;;;;;1.10;0.80;;;5.00;99.90;;;;;;5051294;28;20021;-74
2021/12/02 12:43:12;;;;;;;2.42;1.35;;;5.00;99.90;;;;;;5007682;28;20034;-73
2021/12/02 12:45:41;;;;;;;1.15;1.02;;;5.10;99.90;;;;;;5052170;28;20032;-74
2021/12/02 12:48:25;;;;;;;0.98;0.90;;;5.10;99.90;;;;;;5053880;28;20001;-73
2021/12/02 12:50:52;;;;;;;1.33;1.23;;;5.20;99.90;;;;;;5053854;28;20082;-74
2021/12/02 12:53:29;;;;;;;1.60;1.30;;;5.20;99.90;;;;;;5053013;28;20036;-74
2021/12/02 12:55:55;;;;;;;2.60;1.15;;;5.20;99.90;;;;;;5051233;28;20036;-73
2021/12/02 12:58:29;;;;;;;1.75;1.30;;;5.20;99.90;;;;;;5051393;28;20025;-72
2021/12/02 13:01:04;;;;;;;1.50;1.40;;;5.20;99.90;;;;;;5052633;28;20082;-75
2021/12/02 13:03:44;;;;;;;1.30;1.20;;;5.20;99.90;;;;;;5033601;28;20029;-73
2021/12/02 13:06:22;;;;;;;1.60;1.50;;;5.30;99.90;;;;;;5036437;28;20036;-74
2021/12/02 13:08:50;;;;;;;1.10;1.00;;;5.40;99.90;;;;;;5050722;28;20041;-73
2021/12/02 13:11:19;;;;;;;2.20;1.13;;;5.50;99.90;;;;;;5055330;28;20009;-73
2021/12/02 13:13:46;;;;;;;1.80;1.20;;;5.60;99.90;;;;;;5055885;28;20073;-73
2021/12/02 13:16:19;;;;;;;1.48;1.10;;;5.60;99.90;;;;;;5056381;28;20081;-73
2021/12/02 13:18:59;;;;;;;1.55;1.10;;;5.60;99.90;;;;;;5055479;28;20026;-73
2021/12/02 13:21:32;;;;;;;2.15;1.05;;;5.50;99.90;;;;;;5056191;28;20010;-71
2021/12/02 13:24:06;;;;;;;2.13;1.00;;;5.30;99.90;;;;;;5058443;28;20022;-73
2021/12/02 13:26:35;;;;;;;1.35;1.25;;;5.50;99.90;;;;;;5059251;28;20021;-73